createdAt,value
2018-07-09T00:01:40.216Z,13.78
2018-07-09T00:04:09.070Z,13.72
2018-07-09T00:06:37.887Z,13.79
2018-07-09T00:09:07.312Z,13.65
2018-07-09T00:11:35.979Z,13.64
2018-07-09T00:14:05.003Z,13.71
2018-07-09T00:16:33.912Z,13.75
2018-07-09T00:19:02.748Z,13.69
2018-07-09T00:21:31.760Z,13.62
2018-07-09T00:24:00.652Z,13.62
2018-07-09T00:26:29.601Z,13.60
2018-07-09T00:28:58.480Z,13.43
2018-07-09T00:31:27.664Z,13.46
2018-07-09T00:33:56.589Z,13.46
2018-07-09T00:36:25.428Z,13.39
2018-07-09T00:38:54.454Z,13.35
2018-07-09T00:41:24.237Z,13.35
2018-07-09T00:43:53.070Z,13.33
2018-07-09T00:46:21.945Z,13.27
2018-07-09T00:48:50.891Z,13.28
2018-07-09T00:51:19.804Z,13.34
2018-07-09T00:53:48.538Z,13.44
2018-07-09T00:56:17.412Z,13.26
2018-07-09T00:58:46.248Z,13.29
2018-07-09T01:01:15.020Z,13.31
2018-07-09T01:03:43.919Z,13.21
2018-07-09T01:06:12.724Z,13.23
2018-07-09T01:08:41.704Z,13.33
2018-07-09T01:11:27.421Z,13.14
2018-07-09T01:13:56.335Z,13.19
2018-07-09T01:16:24.938Z,12.81
2018-07-09T01:18:53.783Z,13.15
2018-07-09T01:21:22.719Z,13.07
2018-07-09T01:23:51.598Z,12.96
2018-07-09T01:26:20.543Z,12.62
2018-07-09T01:28:49.537Z,12.88
2018-07-09T01:31:18.351Z,13.16
2018-07-09T01:33:47.148Z,13.11
2018-07-09T01:36:15.806Z,13.08
2018-07-09T01:38:44.658Z,13.15
2018-07-09T01:41:13.817Z,13.10
2018-07-09T01:43:42.660Z,13.09
2018-07-09T01:46:11.513Z,13.09
2018-07-09T01:48:40.118Z,12.99
2018-07-09T01:51:09.026Z,12.95
2018-07-09T01:53:37.826Z,12.97
2018-07-09T01:56:06.657Z,13.00
2018-07-09T01:58:35.446Z,12.93
2018-07-09T02:01:04.315Z,12.98
2018-07-09T02:03:33.180Z,12.91
2018-07-09T02:06:02.033Z,12.84
2018-07-09T02:08:30.638Z,13.03
2018-07-09T02:10:59.497Z,12.84
2018-07-09T02:13:28.259Z,12.85
2018-07-09T02:15:57.165Z,12.86
2018-07-09T02:18:25.951Z,12.94
2018-07-09T02:20:54.817Z,12.84
2018-07-09T02:23:23.647Z,12.87
2018-07-09T02:25:52.486Z,12.96
2018-07-09T02:28:21.211Z,12.95
2018-07-09T02:30:50.071Z,12.71
2018-07-09T02:33:18.965Z,12.79
2018-07-09T02:35:47.740Z,12.82
2018-07-09T02:38:16.576Z,12.87
2018-07-09T02:40:45.494Z,12.85
2018-07-09T02:43:14.373Z,12.83
2018-07-09T02:45:49.111Z,12.88
2018-07-09T02:48:17.766Z,12.88
2018-07-09T02:50:46.784Z,12.86
2018-07-09T02:53:15.615Z,12.97
2018-07-09T02:55:44.383Z,12.96
2018-07-09T02:58:13.227Z,12.99
2018-07-09T03:00:42.062Z,13.11
2018-07-09T03:03:10.968Z,13.09
2018-07-09T03:05:39.765Z,13.08
2018-07-09T03:08:08.610Z,13.12
2018-07-09T03:10:37.440Z,13.08
2018-07-09T03:13:06.376Z,13.16
2018-07-09T03:15:35.219Z,13.02
2018-07-09T03:18:04.166Z,13.04
2018-07-09T03:20:33.000Z,13.05
2018-07-09T03:23:01.757Z,13.08
2018-07-09T03:25:30.612Z,13.00
2018-07-09T03:27:59.279Z,13.14
2018-07-09T03:30:28.117Z,13.15
2018-07-09T03:32:56.928Z,13.05
2018-07-09T03:35:25.779Z,13.18
2018-07-09T03:37:54.625Z,13.13
2018-07-09T03:40:23.686Z,13.11
2018-07-09T03:42:52.475Z,13.20
2018-07-09T03:45:27.512Z,13.29
2018-07-09T03:47:56.351Z,13.30
2018-07-09T03:50:25.203Z,13.57
2018-07-09T03:52:53.973Z,13.93
2018-07-09T03:55:22.803Z,14.02
2018-07-09T03:57:51.700Z,14.03
2018-07-09T04:00:20.384Z,14.24
2018-07-09T04:02:49.252Z,14.12
2018-07-09T04:05:18.056Z,13.97
2018-07-09T04:07:46.732Z,13.81
2018-07-09T04:10:15.600Z,13.79
2018-07-09T04:12:44.384Z,13.73
2018-07-09T04:15:13.308Z,13.82
2018-07-09T04:17:42.148Z,13.75
2018-07-09T04:20:10.973Z,13.82
2018-07-09T04:22:39.797Z,13.82
2018-07-09T04:25:08.796Z,13.90
2018-07-09T04:27:37.675Z,13.98
2018-07-09T04:30:06.481Z,14.05
2018-07-09T04:32:35.189Z,13.97
2018-07-09T04:35:04.051Z,14.04
2018-07-09T04:37:33.066Z,14.13
2018-07-09T04:40:01.776Z,14.40
2018-07-09T04:42:30.629Z,14.74
2018-07-09T04:44:59.291Z,15.10
2018-07-09T04:47:28.387Z,15.70
2018-07-09T04:49:57.150Z,15.38
2018-07-09T04:52:25.859Z,15.25
2018-07-09T04:54:54.741Z,15.22
2018-07-09T04:57:23.532Z,15.30
2018-07-09T04:59:52.294Z,15.39
2018-07-09T05:02:21.129Z,15.20
2018-07-09T05:04:50.091Z,15.31
2018-07-09T05:07:18.956Z,15.21
2018-07-09T05:09:47.739Z,15.11
2018-07-09T05:12:16.593Z,14.71
2018-07-09T05:14:45.380Z,15.06
2018-07-09T05:17:14.232Z,14.95
2018-07-09T05:19:43.087Z,15.25
2018-07-09T05:22:11.693Z,15.54
2018-07-09T05:24:40.542Z,15.70
2018-07-09T05:27:09.509Z,15.76
2018-07-09T05:29:38.341Z,15.73
2018-07-09T05:32:07.160Z,15.75
2018-07-09T05:34:35.983Z,15.89
2018-07-09T05:37:04.845Z,16.06
2018-07-09T05:39:40.489Z,16.15
2018-07-09T05:42:09.505Z,16.13
2018-07-09T05:44:39.119Z,16.20
2018-07-09T05:47:08.768Z,16.41
2018-07-09T05:49:37.712Z,16.46
2018-07-09T05:52:06.709Z,16.35
2018-07-09T05:54:35.923Z,16.40
2018-07-09T05:57:04.744Z,16.43
2018-07-09T05:59:33.552Z,16.51
2018-07-09T06:02:03.270Z,16.58
2018-07-09T06:04:32.141Z,16.50
2018-07-09T06:07:01.024Z,16.54
2018-07-09T06:09:29.933Z,16.63
2018-07-09T06:11:58.788Z,16.57
2018-07-09T06:14:27.652Z,16.49
2018-07-09T06:16:56.413Z,16.46
2018-07-09T06:19:25.295Z,16.55
2018-07-09T06:21:54.264Z,16.53
2018-07-09T06:24:23.084Z,16.47
2018-07-09T06:26:51.799Z,16.66
2018-07-09T06:29:20.608Z,16.69
2018-07-09T06:31:49.338Z,16.69
2018-07-09T06:34:18.163Z,16.69
2018-07-09T06:36:47.044Z,16.78
2018-07-09T06:39:15.694Z,16.80
2018-07-09T06:41:44.519Z,16.80
2018-07-09T06:44:13.511Z,16.87
2018-07-09T06:46:42.180Z,16.84
2018-07-09T06:49:10.992Z,17.03
2018-07-09T06:51:39.661Z,17.06
2018-07-09T06:54:08.490Z,17.32
2018-07-09T06:56:37.395Z,17.46
2018-07-09T06:59:06.231Z,17.45
2018-07-09T07:01:35.040Z,17.61
2018-07-09T07:04:03.910Z,17.48
2018-07-09T07:06:32.809Z,17.47
2018-07-09T07:09:01.769Z,17.62
2018-07-09T07:11:30.691Z,17.91
2018-07-09T07:13:59.481Z,17.96
2018-07-09T07:16:28.269Z,18.17
2018-07-09T07:18:57.135Z,18.03
2018-07-09T07:21:25.966Z,18.09
2018-07-09T07:23:54.639Z,17.91
2018-07-09T07:26:23.525Z,18.19
2018-07-09T07:28:52.468Z,18.11
2018-07-09T07:31:21.344Z,18.63
2018-07-09T07:33:50.338Z,18.98
2018-07-09T07:36:19.138Z,19.86
2018-07-09T07:38:48.020Z,20.29
2018-07-09T07:41:16.847Z,21.27
2018-07-09T07:43:45.749Z,20.34
2018-07-09T07:46:14.604Z,19.88
2018-07-09T07:48:43.443Z,19.41
2018-07-09T07:51:12.283Z,19.36
2018-07-09T07:53:41.144Z,19.53
2018-07-09T07:56:09.808Z,19.53
2018-07-09T07:58:38.708Z,19.30
2018-07-09T08:01:07.626Z,19.21
2018-07-09T08:03:36.300Z,19.27
2018-07-09T08:06:07.127Z,19.14
2018-07-09T08:08:36.144Z,19.20
2018-07-09T08:11:11.069Z,19.43
2018-07-09T08:13:34.586Z,19.37
2018-07-09T08:16:03.434Z,19.34
2018-07-09T08:18:32.123Z,19.22
2018-07-09T08:21:00.786Z,19.18
2018-07-09T08:23:29.606Z,18.95
2018-07-09T08:25:58.511Z,19.05
2018-07-09T08:28:27.609Z,19.10
2018-07-09T08:30:56.492Z,19.10
2018-07-09T08:33:25.364Z,19.27
2018-07-09T08:35:54.262Z,19.37
2018-07-09T08:38:23.148Z,19.22
2018-07-09T08:40:51.829Z,19.09
2018-07-09T08:43:20.916Z,19.06
2018-07-09T08:45:49.775Z,18.98
2018-07-09T08:48:18.778Z,19.04
2018-07-09T08:50:47.624Z,19.08
2018-07-09T08:53:16.259Z,19.37
2018-07-09T08:55:45.145Z,19.53
2018-07-09T08:58:13.948Z,19.93
2018-07-09T09:00:42.839Z,19.89
2018-07-09T09:03:11.656Z,20.20
2018-07-09T09:05:40.533Z,20.15
2018-07-09T09:08:09.389Z,20.62
2018-07-09T09:10:38.181Z,20.48
2018-07-09T09:13:07.302Z,20.21
2018-07-09T09:15:36.099Z,20.55
2018-07-09T09:18:05.013Z,20.86
2018-07-09T09:20:33.804Z,20.01
2018-07-09T09:23:02.662Z,20.17
2018-07-09T09:25:31.569Z,20.28
2018-07-09T09:28:00.412Z,20.08
2018-07-09T09:30:29.268Z,20.13
2018-07-09T09:32:58.089Z,20.23
2018-07-09T09:35:26.895Z,20.51
2018-07-09T09:37:55.915Z,20.97
2018-07-09T09:40:24.773Z,21.06
2018-07-09T09:42:53.912Z,20.85
2018-07-09T09:45:28.636Z,20.40
2018-07-09T09:47:57.540Z,20.18
2018-07-09T09:50:26.340Z,20.29
2018-07-09T09:52:55.181Z,19.80
2018-07-09T09:55:24.075Z,19.99
2018-07-09T09:57:52.950Z,19.94
2018-07-09T10:00:26.378Z,20.55
2018-07-09T10:02:55.216Z,20.94
2018-07-09T10:05:23.817Z,20.84
2018-07-09T10:07:52.542Z,21.21
2018-07-09T10:10:21.420Z,21.26
2018-07-09T10:12:50.322Z,21.22
2018-07-09T10:15:19.438Z,20.92
2018-07-09T10:17:48.291Z,21.03
2018-07-09T10:20:17.220Z,20.87
2018-07-09T10:22:46.101Z,20.77
2018-07-09T10:25:14.963Z,21.04
2018-07-09T10:27:43.777Z,21.28
2018-07-09T10:30:12.611Z,20.83
2018-07-09T10:32:41.580Z,20.73
2018-07-09T10:35:10.626Z,20.80
2018-07-09T10:37:39.697Z,20.52
2018-07-09T10:40:08.676Z,20.75
2018-07-09T10:42:37.592Z,20.54
2018-07-09T10:45:06.306Z,21.08
2018-07-09T10:47:35.092Z,21.37
2018-07-09T10:50:04.156Z,21.00
2018-07-09T10:52:32.987Z,21.12
2018-07-09T10:55:01.848Z,20.72
2018-07-09T10:57:30.703Z,20.52
2018-07-09T10:59:59.568Z,20.52
2018-07-09T11:02:28.256Z,20.50
2018-07-09T11:04:57.083Z,20.89
2018-07-09T11:07:25.931Z,20.41
2018-07-09T11:09:55.080Z,21.10
2018-07-09T11:12:23.891Z,21.16
2018-07-09T11:14:52.755Z,21.17
2018-07-09T11:17:21.605Z,21.09
2018-07-09T11:19:50.387Z,21.22
2018-07-09T11:22:19.206Z,20.86
2018-07-09T11:24:47.995Z,20.31
2018-07-09T11:27:16.856Z,20.40
2018-07-09T11:29:45.667Z,20.85
2018-07-09T11:32:14.481Z,20.94
2018-07-09T11:34:43.268Z,21.52
2018-07-09T11:37:12.096Z,21.66
2018-07-09T11:39:40.901Z,21.38
2018-07-09T11:42:09.752Z,21.43
2018-07-09T11:44:38.609Z,21.43
2018-07-09T11:47:07.632Z,20.78
2018-07-09T11:49:36.455Z,20.63
2018-07-09T11:52:05.576Z,20.86
2018-07-09T11:54:34.198Z,21.30
2018-07-09T11:57:02.996Z,21.78
2018-07-09T11:59:32.107Z,21.20
2018-07-09T12:02:01.349Z,20.99
2018-07-09T12:04:30.299Z,21.27
2018-07-09T12:06:59.153Z,21.77
2018-07-09T12:09:28.417Z,21.75
2018-07-09T12:11:57.200Z,22.03
2018-07-09T12:14:25.830Z,21.63
2018-07-09T12:16:54.719Z,21.47
2018-07-09T12:19:23.526Z,21.03
2018-07-09T12:21:52.520Z,20.60
2018-07-09T12:24:21.347Z,19.98
2018-07-09T12:28:26.350Z,19.86
2018-07-09T12:30:55.343Z,19.46
2018-07-09T12:33:24.384Z,19.71
2018-07-09T12:35:53.103Z,20.28
2018-07-09T12:38:22.177Z,20.92
2018-07-09T12:40:50.882Z,20.08
2018-07-09T12:43:20.011Z,19.88
2018-07-09T12:45:49.625Z,19.70
2018-07-09T12:48:18.582Z,19.95
2018-07-09T12:50:47.588Z,19.78
2018-07-09T12:53:16.499Z,19.99
2018-07-09T12:55:45.701Z,19.85
2018-07-09T12:58:14.662Z,19.77
2018-07-09T13:00:43.741Z,19.30
2018-07-09T13:03:12.707Z,19.71
2018-07-09T13:05:41.661Z,19.91
2018-07-09T13:08:10.477Z,19.81
2018-07-09T13:10:40.575Z,19.40
2018-07-09T13:13:09.515Z,19.41
2018-07-09T13:15:38.511Z,19.62
2018-07-09T13:18:07.309Z,19.36
2018-07-09T13:20:36.344Z,18.99
2018-07-09T13:23:05.362Z,18.50
2018-07-09T13:25:34.364Z,18.50
2018-07-09T13:28:03.433Z,18.71
2018-07-09T13:30:32.598Z,18.31
2018-07-09T13:33:01.789Z,18.66
2018-07-09T13:35:30.928Z,18.60
2018-07-09T13:38:00.000Z,18.73
2018-07-09T13:40:29.186Z,19.10
2018-07-09T13:42:58.297Z,18.94
2018-07-09T13:45:33.678Z,18.35
2018-07-09T13:48:02.796Z,18.49
2018-07-09T13:50:31.969Z,18.31
2018-07-09T13:53:01.129Z,18.50
2018-07-09T13:55:30.413Z,18.52
2018-07-09T13:57:59.304Z,18.45
2018-07-09T14:00:28.091Z,18.91
2018-07-09T14:02:57.084Z,19.05
2018-07-09T14:05:25.998Z,19.17
2018-07-09T14:07:55.067Z,19.10
2018-07-09T14:10:24.022Z,19.42
2018-07-09T14:12:53.293Z,19.63
2018-07-09T14:15:22.212Z,19.51
2018-07-09T14:17:51.182Z,19.62
2018-07-09T14:20:32.755Z,19.14
2018-07-09T14:23:02.403Z,19.00
2018-07-09T14:25:31.427Z,19.20
2018-07-09T14:28:00.809Z,18.91
2018-07-09T14:30:29.845Z,19.35
2018-07-09T14:32:59.672Z,19.32
2018-07-09T14:35:28.755Z,19.39
2018-07-09T14:37:57.738Z,18.94
2018-07-09T14:40:27.003Z,19.10
2018-07-09T14:42:56.079Z,19.41
2018-07-09T14:45:31.316Z,18.98
2018-07-09T14:48:00.252Z,18.82
2018-07-09T14:50:29.321Z,19.02
2018-07-09T14:52:58.339Z,18.66
2018-07-09T14:55:27.355Z,18.48
2018-07-09T14:57:56.332Z,18.43
2018-07-09T15:00:25.326Z,18.38
2018-07-09T15:02:54.374Z,18.42
2018-07-09T15:05:23.420Z,18.37
2018-07-09T15:07:52.438Z,18.32
2018-07-09T15:10:21.430Z,18.39
2018-07-09T15:12:50.340Z,18.21
2018-07-09T15:15:19.436Z,18.37
2018-07-09T15:17:48.465Z,18.32
2018-07-09T15:20:17.427Z,18.17
2018-07-09T15:22:46.140Z,18.21
2018-07-09T15:25:15.111Z,18.16
2018-07-09T15:27:44.019Z,17.93
2018-07-09T15:30:13.047Z,17.65
2018-07-09T15:32:42.007Z,17.47
2018-07-09T15:35:10.976Z,17.48
2018-07-09T15:37:39.677Z,17.30
2018-07-09T15:40:08.469Z,17.17
2018-07-09T15:42:37.477Z,17.15
2018-07-09T15:45:06.741Z,17.34
2018-07-09T15:47:35.753Z,17.49
2018-07-09T15:50:04.494Z,17.40
2018-07-09T15:52:33.474Z,17.46
2018-07-09T15:55:02.249Z,17.30
2018-07-09T15:57:31.229Z,17.31
2018-07-09T16:00:00.215Z,17.33
2018-07-09T16:02:29.151Z,17.21
2018-07-09T16:04:58.111Z,17.26
2018-07-09T16:07:27.198Z,17.27
2018-07-09T16:09:56.115Z,17.34
2018-07-09T16:12:25.078Z,17.40
2018-07-09T16:14:53.998Z,17.35
2018-07-09T16:17:23.539Z,17.46
2018-07-09T16:19:52.525Z,17.04
2018-07-09T16:22:27.981Z,16.95
2018-07-09T16:24:56.890Z,17.27
2018-07-09T16:27:25.964Z,17.23
2018-07-09T16:29:54.956Z,17.17
2018-07-09T16:32:23.925Z,17.30
2018-07-09T16:34:52.848Z,17.34
2018-07-09T16:37:21.836Z,17.18
2018-07-09T16:39:50.768Z,17.27
2018-07-09T16:42:19.895Z,17.34
2018-07-09T16:44:48.922Z,17.42
2018-07-09T16:47:18.241Z,17.56
2018-07-09T16:49:47.185Z,17.83
2018-07-09T16:52:16.139Z,17.87
2018-07-09T16:54:45.296Z,17.61
2018-07-09T16:57:14.243Z,17.44
2018-07-09T16:59:43.045Z,17.68
2018-07-09T17:02:11.741Z,17.84
2018-07-09T17:04:40.713Z,17.92
2018-07-09T17:07:09.718Z,17.63
2018-07-09T17:09:38.708Z,17.63
2018-07-09T17:12:07.732Z,17.59
2018-07-09T17:14:36.721Z,17.43
2018-07-09T17:17:05.779Z,17.56
2018-07-09T17:19:34.947Z,17.43
2018-07-09T17:22:03.939Z,17.32
2018-07-09T17:24:32.913Z,17.15
2018-07-09T17:27:02.009Z,17.32
2018-07-09T17:29:30.872Z,17.16
2018-07-09T17:31:59.924Z,17.22
2018-07-09T17:34:28.934Z,17.20
2018-07-09T17:36:57.888Z,17.05
2018-07-09T17:39:26.903Z,17.07
2018-07-09T17:41:56.365Z,16.80
2018-07-09T17:44:25.465Z,16.79
2018-07-09T17:46:54.635Z,16.66
2018-07-09T17:49:23.582Z,16.65
2018-07-09T17:51:52.581Z,16.69
2018-07-09T17:54:21.530Z,16.66
2018-07-09T17:56:50.977Z,16.65
2018-07-09T17:59:19.940Z,16.75
2018-07-09T18:01:48.944Z,16.39
2018-07-09T18:04:17.864Z,16.32
2018-07-09T18:06:48.005Z,16.25
2018-07-09T18:09:16.957Z,16.16
2018-07-09T18:11:45.956Z,16.05
2018-07-09T18:14:14.893Z,16.21
2018-07-09T18:16:43.884Z,16.03
2018-07-09T18:19:12.931Z,16.04
2018-07-09T18:21:42.120Z,16.16
2018-07-09T18:24:11.067Z,16.22
2018-07-09T18:26:40.167Z,16.06
2018-07-09T18:29:09.181Z,15.92
2018-07-09T18:31:37.934Z,16.14
2018-07-09T18:34:07.195Z,16.16
2018-07-09T18:36:35.914Z,16.21
2018-07-09T18:39:05.659Z,16.13
2018-07-09T18:41:34.653Z,16.26
2018-07-09T18:44:03.715Z,16.06
2018-07-09T18:46:32.800Z,16.10
2018-07-09T18:49:01.932Z,15.88
2018-07-09T18:51:31.002Z,15.88
2018-07-09T18:53:59.952Z,15.86
2018-07-09T18:56:29.044Z,15.96
2018-07-09T18:58:58.120Z,15.85
2018-07-09T19:01:27.120Z,15.98
2018-07-09T19:03:56.770Z,15.94
2018-07-09T19:07:00.375Z,15.97
2018-07-09T19:09:30.520Z,15.98
2018-07-09T19:12:03.369Z,15.93
2018-07-09T19:14:44.293Z,15.78
2018-07-09T19:18:28.641Z,15.70
2018-07-09T19:21:40.868Z,15.72
2018-07-09T19:24:10.330Z,15.65
2018-07-09T19:26:37.969Z,15.71
2018-07-09T19:29:04.933Z,15.53
2018-07-09T19:31:32.041Z,15.48
2018-07-09T19:33:59.053Z,15.67
2018-07-09T19:36:26.534Z,15.49
2018-07-09T19:38:53.484Z,15.25
2018-07-09T19:41:20.494Z,15.17
2018-07-09T19:43:47.761Z,15.25
2018-07-09T19:46:14.840Z,15.21
2018-07-09T19:48:41.804Z,15.11
2018-07-09T19:51:08.765Z,15.20
2018-07-09T19:53:35.868Z,15.23
2018-07-09T19:56:03.358Z,15.21
2018-07-09T19:58:30.371Z,15.30
2018-07-09T20:00:57.376Z,15.30
2018-07-09T20:03:24.857Z,15.28
2018-07-09T20:05:51.826Z,15.27
2018-07-09T20:08:19.585Z,15.25
2018-07-09T20:10:52.084Z,15.19
2018-07-09T20:13:24.498Z,15.06
2018-07-09T20:15:57.523Z,15.14
2018-07-09T20:18:24.636Z,15.07
2018-07-09T20:20:51.666Z,15.07
2018-07-09T20:23:18.634Z,15.08
2018-07-09T20:25:46.084Z,14.99
2018-07-09T20:28:13.150Z,15.07
2018-07-09T20:30:40.180Z,15.09
2018-07-09T20:33:07.196Z,15.02
2018-07-09T20:35:34.142Z,15.00
2018-07-09T20:38:01.143Z,15.09
2018-07-09T20:40:28.102Z,15.06
2018-07-09T20:42:55.183Z,14.90
2018-07-09T20:45:28.291Z,14.92
2018-07-09T20:47:55.310Z,14.91
2018-07-09T20:50:22.326Z,14.83
2018-07-09T20:52:49.730Z,14.91
2018-07-09T20:55:16.808Z,14.89
2018-07-09T20:57:43.771Z,14.77
2018-07-09T21:00:10.776Z,14.83
2018-07-09T21:02:37.739Z,14.82
2018-07-09T21:05:04.759Z,14.86
2018-07-09T21:07:32.230Z,14.96
2018-07-09T21:09:59.243Z,14.95
2018-07-09T21:12:26.212Z,14.88
2018-07-09T21:14:53.268Z,14.90
2018-07-09T21:17:20.228Z,14.80
2018-07-09T21:19:47.307Z,14.76
2018-07-09T21:22:14.298Z,14.72
2018-07-09T21:24:41.487Z,14.68
2018-07-09T21:27:08.450Z,14.62
2018-07-09T21:29:35.407Z,14.67
2018-07-09T21:32:02.481Z,14.72
2018-07-09T21:34:29.446Z,14.68
2018-07-09T21:36:56.464Z,14.50
2018-07-09T21:39:23.433Z,14.09
2018-07-09T21:41:50.451Z,13.90
2018-07-09T21:44:17.484Z,13.90
2018-07-09T21:46:44.526Z,13.86
2018-07-09T21:49:11.483Z,13.49
2018-07-09T21:51:38.946Z,13.76
2018-07-09T21:54:06.342Z,13.67
2018-07-09T21:56:33.472Z,13.85
2018-07-09T21:59:00.441Z,13.82
2018-07-09T22:01:27.460Z,13.81
2018-07-09T22:03:54.857Z,13.87
2018-07-09T22:06:21.869Z,13.87
2018-07-09T22:08:49.373Z,13.83
2018-07-09T22:11:16.389Z,13.91
2018-07-09T22:13:43.367Z,13.87
2018-07-09T22:16:10.344Z,13.83
2018-07-09T22:18:37.368Z,13.75
2018-07-09T22:21:04.414Z,13.95
2018-07-09T22:23:31.444Z,13.84
2018-07-09T22:25:58.416Z,13.75
2018-07-09T22:28:25.384Z,13.68
2018-07-09T22:30:54.338Z,13.71
2018-07-09T22:33:23.274Z,13.68
2018-07-09T22:35:52.056Z,13.75
2018-07-09T22:38:21.408Z,13.83
2018-07-09T22:40:50.163Z,13.65
2018-07-09T22:43:35.929Z,13.57
2018-07-09T22:46:05.073Z,13.76
2018-07-09T22:48:33.905Z,13.74
2018-07-09T22:51:02.728Z,13.75
2018-07-09T22:53:31.366Z,13.70
2018-07-09T22:56:12.986Z,13.66
2018-07-09T22:58:42.532Z,13.69
2018-07-09T23:01:11.336Z,13.76
2018-07-09T23:03:40.214Z,13.67
2018-07-09T23:06:08.977Z,13.65
2018-07-09T23:08:37.803Z,13.66
2018-07-09T23:11:33.424Z,13.67
2018-07-09T23:16:47.175Z,13.62
2018-07-09T23:19:34.627Z,13.50
2018-07-09T23:22:17.062Z,13.51
2018-07-09T23:24:44.024Z,13.59
2018-07-09T23:27:10.938Z,13.61
2018-07-09T23:29:37.897Z,13.72
2018-07-09T23:32:04.874Z,13.73
2018-07-09T23:34:32.286Z,13.80
2018-07-09T23:36:59.203Z,13.72
2018-07-09T23:39:26.205Z,13.84
2018-07-09T23:41:53.210Z,13.82
2018-07-09T23:44:20.664Z,13.72
2018-07-09T23:46:47.663Z,13.69
2018-07-09T23:49:14.571Z,13.68
2018-07-09T23:51:41.522Z,13.82
2018-07-09T23:54:08.442Z,13.72
2018-07-09T23:57:22.159Z,13.74
